Time;durP1;ratioP1;P1;durP2;ratioP2;P2;SDS_P1;SDS_P2;PMS_P1;PMS_P2;Temp;Humidity;BMP_temperature;BMP_pressure;BME280_temperature;BME280_humidity;BME280_pressure;Samples;Min_cycle;Max_cycle;Signal;HPM_P1;HPM_P2
2023/11/02 00:01:20;;;;;;;1.55;0.95;;;;;;;12.04;100.00;98608.09;5078804;28;20076;-73
2023/11/02 00:03:48;;;;;;;3.95;1.00;;;;;;;12.16;100.00;98613.25;5066994;28;20056;-72
2023/11/02 00:06:23;;;;;;;1.42;0.80;;;;;;;12.15;100.00;98600.94;5071035;28;20610;-72
2023/11/02 00:09:16;;;;;;;3.58;1.05;;;;;;;12.12;100.00;98593.22;5072731;28;20055;-73
2023/11/02 00:11:53;;;;;;;1.88;0.93;;;;;;;12.08;100.00;98583.88;5078515;28;20047;-73
2023/11/02 00:14:23;;;;;;;3.15;0.85;;;;;;;12.16;100.00;98577.91;5088461;28;20413;-73
2023/11/02 00:16:52;;;;;;;1.77;0.70;;;;;;;12.16;100.00;98575.25;5071376;28;20051;-73
2023/11/02 00:19:29;;;;;;;1.02;0.90;;;;;;;12.14;100.00;98571.88;5066822;28;20055;-73
2023/11/02 00:22:06;;;;;;;1.90;0.80;;;;;;;12.11;100.00;98573.00;5064001;28;20099;-74
2023/11/02 00:24:36;;;;;;;1.65;0.90;;;;;;;12.09;100.00;98551.06;5085995;28;20178;-72
2023/11/02 00:27:04;;;;;;;3.53;0.90;;;;;;;12.21;100.00;98550.03;5070612;28;20132;-73
2023/11/02 00:29:35;;;;;;;3.78;0.80;;;;;;;12.25;100.00;98538.22;5066714;28;20488;-72
2023/11/02 00:32:03;;;;;;;3.50;0.88;;;;;;;12.16;100.00;98531.00;5063714;28;20070;-72
2023/11/02 00:34:34;;;;;;;2.10;0.90;;;;;;;12.12;100.00;98539.34;5053920;28;20075;-72
2023/11/02 00:37:04;;;;;;;2.58;0.75;;;;;;;11.97;100.00;98517.56;5070064;28;20062;-73
2023/11/02 00:39:33;;;;;;;1.42;0.80;;;;;;;12.11;100.00;98530.56;5070006;28;20046;-72
2023/11/02 00:42:04;;;;;;;2.10;0.93;;;;;;;12.15;100.00;98516.03;5066456;28;20139;-72
2023/11/02 00:44:34;;;;;;;4.72;0.80;;;;;;;12.25;100.00;98519.63;5050678;28;20125;-73
2023/11/02 00:47:04;;;;;;;2.75;0.70;;;;;;;12.24;100.00;98509.97;5072709;28;20336;-73
2023/11/02 00:49:32;;;;;;;2.17;0.57;;;;;;;12.27;100.00;98504.44;5053481;28;20048;-73
2023/11/02 00:52:02;;;;;;;2.38;0.70;;;;;;;12.29;100.00;98513.06;5057123;28;20051;-72
2023/11/02 00:54:56;;;;;;;1.80;0.77;;;;;;;12.26;100.00;98509.84;5048145;28;20048;-75
2023/11/02 00:57:31;;;;;;;4.25;0.70;;;;;;;12.21;100.00;98504.94;5087928;28;20036;-73
2023/11/02 00:59:59;;;;;;;2.15;0.55;;;;;;;12.28;100.00;98494.63;5045257;28;20072;-73
2023/11/02 01:02:34;;;;;;;2.78;0.60;;;;;;;12.26;100.00;98481.50;5064828;28;20048;-73
2023/11/02 01:05:06;;;;;;;1.33;0.57;;;;;;;12.27;100.00;98485.00;5068884;28;20041;-73
2023/11/02 01:07:35;;;;;;;2.10;0.63;;;;;;;12.25;100.00;98463.91;5071185;28;20037;-74
2023/11/02 01:10:08;;;;;;;3.72;0.93;;;;;;;12.36;100.00;98464.78;5065177;28;20055;-74
2023/11/02 01:12:38;;;;;;;1.38;0.63;;;;;;;12.39;100.00;98452.13;5067527;28;20052;-72
2023/11/02 01:15:21;;;;;;;2.30;0.50;;;;;;;12.48;100.00;98456.63;5062504;28;20040;-71
2023/11/02 01:17:50;;;;;;;2.05;0.50;;;;;;;12.52;100.00;98436.81;5073617;28;20045;-72
2023/11/02 01:20:52;;;;;;;1.85;0.60;;;;;;;12.64;100.00;98429.59;5072675;28;20060;-72
2023/11/02 01:23:21;;;;;;;1.92;0.47;;;;;;;12.63;100.00;98425.25;5035028;28;20134;-73
2023/11/02 01:25:50;;;;;;;1.50;0.65;;;;;;;12.66;100.00;98417.03;5068461;28;20041;-73
2023/11/02 01:28:22;;;;;;;2.35;0.60;;;;;;;12.65;100.00;98412.69;5068396;28;20064;-74
2023/11/02 01:31:15;;;;;;;2.20;0.70;;;;;;;12.68;100.00;98401.81;5092649;28;20048;-72
2023/11/02 01:33:59;;;;;;;1.95;0.70;;;;;;;12.53;100.00;98385.41;5080997;28;20456;-74
2023/11/02 01:36:33;;;;;;;1.25;0.50;;;;;;;12.52;100.00;98390.84;5076057;28;21136;-73
2023/11/02 01:39:29;;;;;;;2.40;0.60;;;;;;;12.47;100.00;98372.66;5080690;28;20068;-73
2023/11/02 01:42:07;;;;;;;2.33;0.55;;;;;;;12.32;100.00;98355.41;5070582;28;20564;-73
2023/11/02 01:44:42;;;;;;;5.28;0.77;;;;;;;12.21;100.00;98334.25;5073623;28;20041;-73
2023/11/02 01:47:21;;;;;;;2.60;0.60;;;;;;;12.15;100.00;98332.97;5062047;28;20037;-73
2023/11/02 01:49:54;;;;;;;2.95;0.70;;;;;;;12.19;100.00;98333.53;5078880;28;20104;-72
2023/11/02 01:52:37;;;;;;;1.50;0.63;;;;;;;12.09;100.00;98314.94;5069936;28;20470;-72
2023/11/02 01:55:22;;;;;;;2.33;0.77;;;;;;;12.03;100.00;98304.00;5079083;28;20044;-71
2023/11/02 01:58:01;;;;;;;2.13;0.70;;;;;;;11.97;100.00;98288.59;5074636;28;20108;-72
2023/11/02 02:00:34;;;;;;;2.92;0.63;;;;;;;11.94;100.00;98300.34;5056258;28;20075;-72
2023/11/02 02:03:09;;;;;;;2.30;0.60;;;;;;;11.84;100.00;98292.31;5088151;28;20060;-73
2023/11/02 02:05:44;;;;;;;3.80;0.65;;;;;;;11.85;100.00;98286.03;5071481;28;20132;-72
2023/11/02 02:08:31;;;;;;;1.15;0.50;;;;;;;11.75;100.00;98282.47;5086470;28;20147;-72
2023/11/02 02:11:16;;;;;;;2.92;0.63;;;;;;;11.67;100.00;98269.00;5065794;28;20174;-72
2023/11/02 02:14:00;;;;;;;2.75;0.88;;;;;;;11.62;100.00;98267.75;5074903;28;20238;-73
2023/11/02 02:16:35;;;;;;;1.30;0.50;;;;;;;11.55;100.00;98262.09;5070924;28;20036;-72
2023/11/02 02:19:14;;;;;;;2.83;0.73;;;;;;;11.48;100.00;98256.50;5085871;28;20086;-72
2023/11/02 02:21:51;;;;;;;2.50;0.70;;;;;;;11.39;100.00;98251.97;5067982;28;20179;-71
2023/11/02 02:24:28;;;;;;;3.20;0.60;;;;;;;11.41;100.00;98238.59;5083658;28;20049;-73
2023/11/02 02:27:38;;;;;;;2.17;0.80;;;;;;;11.41;100.00;98231.47;5076838;28;20071;-73
2023/11/02 02:30:33;;;;;;;1.02;0.50;;;;;;;11.37;100.00;98216.78;5085072;28;20139;-72
2023/11/02 02:33:35;;;;;;;2.83;0.70;;;;;;;11.36;100.00;98215.13;5069019;28;20045;-72
2023/11/02 02:36:14;;;;;;;3.00;0.77;;;;;;;11.38;100.00;98199.94;5074674;28;20075;-73
2023/11/02 02:38:47;;;;;;;2.15;0.55;;;;;;;11.28;100.00;98183.16;5056497;28;20040;-73
2023/11/02 02:41:17;;;;;;;2.00;0.80;;;;;;;11.37;100.00;98171.75;5067818;28;20041;-72
2023/11/02 02:43:48;;;;;;;;;;;;;;;11.44;100.00;98185.31;5084000;28;20388;-72
2023/11/02 02:46:19;;;;;;;1.85;0.65;;;;;;;11.40;100.00;98190.03;5074569;28;19920;-72
2023/11/02 02:48:48;;;;;;;1.33;0.60;;;;;;;11.35;100.00;98197.53;5072497;28;20048;-73
2023/11/02 02:51:19;;;;;;;1.95;0.70;;;;;;;11.34;100.00;98195.00;5066980;28;20049;-72
2023/11/02 02:53:51;;;;;;;3.05;0.88;;;;;;;11.43;100.00;98200.38;5056060;28;20136;-72
2023/11/02 02:56:23;;;;;;;1.15;0.50;;;;;;;11.37;100.00;98200.91;5073899;28;20068;-73
2023/11/02 02:58:52;;;;;;;;;;;;;;;11.37;100.00;98192.09;5073537;28;20082;-73
2023/11/02 03:01:21;;;;;;;2.53;0.50;;;;;;;11.34;100.00;98169.34;5066919;28;20395;-72
2023/11/02 03:03:49;;;;;;;2.03;0.47;;;;;;;11.35;100.00;98164.91;5072259;28;20075;-74
2023/11/02 03:06:21;;;;;;;2.10;0.55;;;;;;;11.28;100.00;98159.31;5071665;28;20159;-72
2023/11/02 03:08:49;;;;;;;;;;;;;;;11.39;100.00;98177.75;5067707;28;20049;-72
2023/11/02 03:11:21;;;;;;;2.05;0.40;;;;;;;11.40;100.00;98170.66;5066209;28;19985;-72
2023/11/02 03:13:53;;;;;;;1.05;0.50;;;;;;;11.45;100.00;98168.47;5066180;28;20040;-73
2023/11/02 03:16:22;;;;;;;2.67;0.60;;;;;;;11.39;100.00;98145.97;5071282;28;20501;-73
2023/11/02 03:18:51;;;;;;;2.97;0.70;;;;;;;11.34;100.00;98123.47;5083993;28;20101;-72
2023/11/02 03:21:20;;;;;;;1.77;0.63;;;;;;;11.41;100.00;98122.81;5072486;28;20048;-72
2023/11/02 03:23:57;;;;;;;1.50;0.50;;;;;;;11.47;100.00;98132.06;5064583;28;20060;-72
2023/11/02 03:26:38;;;;;;;1.35;0.50;;;;;;;11.48;100.00;98137.25;5070008;28;20044;-73
2023/11/02 03:29:17;;;;;;;4.63;0.80;;;;;;;11.49;100.00;98119.53;5070081;28;20044;-73
2023/11/02 03:31:53;;;;;;;1.50;0.60;;;;;;;11.52;100.00;98130.69;5068138;28;20036;-72
2023/11/02 03:34:30;;;;;;;2.45;0.60;;;;;;;11.49;100.00;98125.63;5063844;28;20092;-72
2023/11/02 03:37:20;;;;;;;3.45;0.55;;;;;;;11.47;100.00;98101.09;5087978;28;20066;-72
2023/11/02 03:40:15;;;;;;;2.45;0.57;;;;;;;11.50;100.00;98090.22;5084520;28;20067;-73
2023/11/02 03:42:54;;;;;;;1.42;1.00;;;;;;;11.52;100.00;98090.91;5053042;28;20135;-73
2023/11/02 03:46:11;;;;;;;6.33;0.60;;;;;;;11.49;100.00;98085.88;5069941;28;20146;-73
2023/11/02 03:48:44;;;;;;;1.98;0.40;;;;;;;11.37;100.00;98054.31;5067608;28;20051;-72
2023/11/02 03:51:32;;;;;;;2.58;0.60;;;;;;;11.38;100.00;98048.88;5069082;28;20543;-73
2023/11/02 03:54:15;;;;;;;0.50;0.40;;;;;;;11.51;100.00;98053.94;5066047;28;20040;-72
2023/11/02 03:56:58;;;;;;;2.60;0.50;;;;;;;11.53;100.00;98052.84;5066530;28;20048;-73
2023/11/02 03:59:36;;;;;;;2.85;0.65;;;;;;;11.48;100.00;98038.34;5059843;28;20051;-72
2023/11/02 04:02:07;;;;;;;3.25;0.70;;;;;;;11.49;100.00;98032.06;5074353;28;21076;-70
2023/11/02 04:04:44;;;;;;;2.33;0.60;;;;;;;11.47;100.00;98013.66;5055495;28;20053;-73
2023/11/02 04:07:22;;;;;;;2.53;0.68;;;;;;;11.57;100.00;98033.06;5052555;28;20145;-72
2023/11/02 04:09:55;;;;;;;0.82;0.40;;;;;;;11.51;100.00;98028.28;5068069;28;20051;-75
2023/11/02 04:12:32;;;;;;;1.25;0.50;;;;;;;11.55;100.00;98042.09;5062035;28;20051;-72
2023/11/02 04:15:01;;;;;;;1.98;0.50;;;;;;;11.59;100.00;98047.00;5068952;28;20346;-72
2023/11/02 04:17:30;;;;;;;0.85;0.40;;;;;;;11.56;100.00;98026.06;5072504;28;20064;-72
2023/11/02 04:20:00;;;;;;;1.38;0.43;;;;;;;11.64;100.00;98011.31;5075472;28;20043;-73
2023/11/02 04:22:31;;;;;;;1.92;0.50;;;;;;;11.63;100.00;98009.63;5057350;28;21616;-73
2023/11/02 04:25:01;;;;;;;2.13;0.63;;;;;;;11.67;100.00;98009.22;5069306;28;20475;-72
2023/11/02 04:27:29;;;;;;;1.37;0.40;;;;;;;11.64;100.00;98006.00;5065512;28;20063;-73
2023/11/02 04:29:57;;;;;;;3.20;0.50;;;;;;;11.63;100.00;98004.34;5068704;28;20040;-72
2023/11/02 04:32:25;;;;;;;1.42;0.43;;;;;;;11.68;100.00;97996.78;5047785;28;20062;-72
2023/11/02 04:34:56;;;;;;;2.60;0.60;;;;;;;11.71;100.00;97993.88;5070230;28;20048;-72
2023/11/02 04:37:26;;;;;;;2.83;0.63;;;;;;;11.71;100.00;97972.66;5069468;28;20044;-72
2023/11/02 04:39:54;;;;;;;2.28;0.57;;;;;;;11.74;100.00;97953.84;5070151;28;20056;-73
2023/11/02 04:42:23;;;;;;;1.02;0.50;;;;;;;11.85;100.00;97954.56;5048375;28;20136;-72
2023/11/02 04:44:52;;;;;;;3.70;0.70;;;;;;;11.86;100.00;97944.78;5067050;28;20063;-74
2023/11/02 04:47:22;;;;;;;4.40;0.55;;;;;;;11.92;100.00;97946.91;5070794;28;20041;-72
2023/11/02 04:49:52;;;;;;;1.15;0.70;;;;;;;11.91;100.00;97937.25;5067946;28;20037;-74
2023/11/02 04:52:20;;;;;;;1.63;0.50;;;;;;;11.82;100.00;97927.47;5066171;28;20386;-72
2023/11/02 04:54:48;;;;;;;2.00;0.50;;;;;;;11.83;100.00;97926.50;5049385;28;20060;-71
2023/11/02 04:57:16;;;;;;;1.38;0.57;;;;;;;11.79;100.00;97922.47;5073134;28;20040;-72
2023/11/02 04:59:46;;;;;;;3.78;0.50;;;;;;;11.65;100.00;97901.66;5068287;28;20044;-73
2023/11/02 05:02:14;;;;;;;1.00;0.52;;;;;;;11.72;100.00;97908.91;5065780;28;20043;-72
2023/11/02 05:04:42;;;;;;;2.38;0.60;;;;;;;11.75;100.00;97905.97;5061239;28;20048;-72
2023/11/02 05:07:11;;;;;;;3.40;0.50;;;;;;;11.71;100.00;97917.00;5072050;28;20500;-72
2023/11/02 05:09:41;;;;;;;2.50;0.40;;;;;;;11.66;100.00;97911.25;5056471;28;20040;-71
2023/11/02 05:12:10;;;;;;;1.75;0.65;;;;;;;11.54;100.00;97884.91;5048819;28;20084;-72
2023/11/02 05:14:39;;;;;;;2.28;0.47;;;;;;;11.50;100.00;97887.94;5045696;28;20076;-71
2023/11/02 05:17:08;;;;;;;2.60;0.63;;;;;;;11.37;100.00;97872.34;5069365;28;20045;-73
2023/11/02 05:19:37;;;;;;;1.15;0.65;;;;;;;11.28;100.00;97872.34;5069776;28;20052;-73
2023/11/02 05:22:06;;;;;;;4.38;0.73;;;;;;;11.19;100.00;97869.53;5069787;28;20610;-71
2023/11/02 05:24:34;;;;;;;3.50;0.70;;;;;;;11.09;100.00;97867.84;5064593;28;20448;-72
2023/11/02 05:27:03;;;;;;;1.83;0.68;;;;;;;10.99;100.00;97862.53;5070685;28;20045;-74
2023/11/02 05:29:31;;;;;;;2.42;0.85;;;;;;;10.92;100.00;97863.19;5064016;28;20078;-73
2023/11/02 05:31:59;;;;;;;3.17;0.65;;;;;;;10.84;100.00;97869.19;5066343;28;20040;-72
2023/11/02 05:34:29;;;;;;;4.95;0.80;;;;;;;10.72;100.00;97857.00;5062924;28;20052;-72
2023/11/02 05:36:58;;;;;;;2.90;1.10;;;;;;;10.68;100.00;97859.09;5070609;28;20040;-74
2023/11/02 05:39:26;;;;;;;3.60;0.88;;;;;;;10.71;100.00;97850.03;5070816;28;20443;-73
2023/11/02 05:41:55;;;;;;;4.13;0.75;;;;;;;10.64;100.00;97843.63;5069653;28;20068;-74
2023/11/02 05:44:23;;;;;;;3.28;0.57;;;;;;;10.57;100.00;97827.44;5066531;28;20071;-73
2023/11/02 05:46:52;;;;;;;3.20;0.65;;;;;;;10.28;100.00;97814.09;5068589;28;20071;-72
2023/11/02 05:49:20;;;;;;;2.65;0.82;;;;;;;10.23;100.00;97796.97;5056737;28;20059;-73
2023/11/02 05:51:50;;;;;;;2.47;0.80;;;;;;;10.27;100.00;97799.19;5074004;28;20045;-72
2023/11/02 05:54:19;;;;;;;2.25;0.57;;;;;;;10.15;100.00;97792.31;5066987;28;20052;-75
2023/11/02 05:56:49;;;;;;;1.38;0.60;;;;;;;10.01;100.00;97782.91;5082146;28;20048;-73
2023/11/02 05:59:18;;;;;;;1.73;0.60;;;;;;;9.96;100.00;97766.59;5075543;28;20047;-73
2023/11/02 06:01:47;;;;;;;4.32;0.65;;;;;;;9.97;100.00;97770.94;5077273;28;20470;-72
2023/11/02 06:04:15;;;;;;;2.67;0.80;;;;;;;9.87;100.00;97780.63;5067536;28;20052;-73
2023/11/02 06:06:43;;;;;;;1.40;0.70;;;;;;;9.76;100.00;97778.88;5069287;28;20041;-73
2023/11/02 06:09:13;;;;;;;2.08;0.70;;;;;;;9.66;100.00;97775.34;5070670;28;20052;-73
2023/11/02 06:11:41;;;;;;;0.93;0.63;;;;;;;9.72;100.00;97785.41;5078917;28;20136;-73
2023/11/02 06:14:10;;;;;;;3.45;0.80;;;;;;;9.70;100.00;97787.34;5071485;28;20032;-72
2023/11/02 06:16:38;;;;;;;3.00;0.77;;;;;;;9.69;100.00;97790.13;5068863;28;20044;-73
2023/11/02 06:19:07;;;;;;;3.47;0.90;;;;;;;9.55;100.00;97777.22;5072420;28;20048;-73
2023/11/02 06:21:36;;;;;;;2.35;0.90;;;;;;;9.67;100.00;97807.91;5072996;28;20060;-72
2023/11/02 06:24:05;;;;;;;2.17;1.20;;;;;;;9.70;100.00;97805.84;5068196;28;20107;-72
2023/11/02 06:26:36;;;;;;;3.85;0.98;;;;;;;9.76;100.00;97801.81;5071567;28;20454;-73
2023/11/02 06:29:06;;;;;;;5.53;0.80;;;;;;;9.73;100.00;97788.91;5053063;28;20047;-73
2023/11/02 06:31:36;;;;;;;3.25;0.80;;;;;;;9.72;100.00;97774.84;5053792;28;20052;-73
2023/11/02 06:34:04;;;;;;;3.25;0.95;;;;;;;9.75;100.00;97765.81;5065101;28;20420;-73
2023/11/02 06:36:32;;;;;;;2.47;0.70;;;;;;;9.73;100.00;97765.94;5068114;28;20072;-73
2023/11/02 06:39:01;;;;;;;2.65;0.85;;;;;;;9.74;100.00;97783.47;5079255;28;20060;-74
2023/11/02 06:41:30;;;;;;;1.88;0.93;;;;;;;9.74;100.00;97780.00;5072224;28;20051;-73
2023/11/02 06:43:59;;;;;;;2.53;1.02;;;;;;;9.80;100.00;97768.88;5067811;28;20162;-74
2023/11/02 06:46:29;;;;;;;3.28;0.93;;;;;;;9.80;100.00;97767.09;5074985;28;20040;-73
2023/11/02 06:48:57;;;;;;;1.85;0.70;;;;;;;9.75;100.00;97757.88;5069528;28;20108;-72
2023/11/02 06:51:53;;;;;;;2.53;0.88;;;;;;;9.75;100.00;97765.81;5072827;28;20071;-73
2023/11/02 06:54:22;;;;;;;0.88;0.73;;;;;;;9.64;100.00;97750.84;5063556;28;20039;-73
2023/11/02 06:56:55;;;;;;;2.53;0.90;;;;;;;9.88;100.00;97770.88;5063386;28;20063;-72
2023/11/02 06:59:50;;;;;;;2.65;0.70;;;;;;;9.85;100.00;97758.78;5066077;28;20530;-73
2023/11/02 07:02:22;;;;;;;3.08;1.00;;;;;;;9.85;100.00;97770.19;5051756;28;20052;-74
2023/11/02 07:04:55;;;;;;;4.38;0.90;;;;;;;9.91;100.00;97752.97;5057004;28;20549;-72
2023/11/02 07:07:23;;;;;;;1.23;0.70;;;;;;;9.91;100.00;97746.84;5071339;28;20471;-72
2023/11/02 07:09:51;;;;;;;2.20;1.02;;;;;;;9.91;100.00;97745.03;5067567;28;20045;-72
2023/11/02 07:12:20;;;;;;;2.20;1.00;;;;;;;9.94;100.00;97746.56;5065586;28;20104;-73
2023/11/02 07:14:49;;;;;;;1.75;0.57;;;;;;;9.93;100.00;97742.22;5061064;28;20051;-71
2023/11/02 07:17:17;;;;;;;2.08;0.75;;;;;;;9.92;100.00;97729.97;5054328;28;20427;-73
2023/11/02 07:19:46;;;;;;;2.00;1.00;;;;;;;9.85;100.00;97704.09;5071267;28;20094;-72
2023/11/02 07:22:22;;;;;;;3.92;0.70;;;;;;;9.94;100.00;97706.91;5068224;28;20037;-73
2023/11/02 07:24:50;;;;;;;3.20;0.90;;;;;;;9.92;100.00;97711.47;5065478;28;20493;-73
2023/11/02 07:27:21;;;;;;;1.90;0.88;;;;;;;9.92;100.00;97663.91;5069913;28;20045;-72
2023/11/02 07:29:50;;;;;;;1.95;1.00;;;;;;;9.98;100.00;97607.84;5051383;28;20044;-71
2023/11/02 07:32:22;;;;;;;2.80;0.87;;;;;;;9.87;100.00;97587.69;5096456;28;21095;-71
2023/11/02 07:34:52;;;;;;;2.60;0.90;;;;;;;10.00;100.00;97550.41;5073719;28;20470;-72
2023/11/02 07:41:06;;;;;;;1.05;0.80;;;;;;;9.95;100.00;97507.69;5072892;28;20059;-71
2023/11/02 07:43:37;;;;;;;2.65;0.90;;;;;;;9.91;100.00;97493.94;5088397;28;20056;-72
2023/11/02 07:46:07;;;;;;;2.92;0.70;;;;;;;9.91;100.00;97520.34;5067550;28;20076;-71
2023/11/02 07:48:39;;;;;;;1.10;0.82;;;;;;;9.88;100.00;97543.56;5073847;28;20052;-72
2023/11/02 07:51:08;;;;;;;2.60;1.00;;;;;;;9.87;100.00;97553.31;5062058;28;20044;-72
2023/11/02 07:53:37;;;;;;;2.65;0.85;;;;;;;9.90;100.00;97587.41;5067438;28;20041;-71
2023/11/02 07:56:06;;;;;;;2.90;1.08;;;;;;;9.98;100.00;97605.22;5067864;28;20515;-71
2023/11/02 07:58:35;;;;;;;1.83;0.80;;;;;;;9.98;100.00;97587.53;5066372;28;20045;-72
2023/11/02 08:01:05;;;;;;;3.03;0.90;;;;;;;10.07;100.00;97599.94;5078417;28;20501;-73
2023/11/02 08:03:35;;;;;;;2.22;0.70;;;;;;;10.20;100.00;97583.88;5081036;28;20048;-71
2023/11/02 08:06:04;;;;;;;2.90;0.80;;;;;;;10.23;100.00;97561.59;5064306;28;20040;-72
2023/11/02 08:08:33;;;;;;;2.00;0.90;;;;;;;10.26;100.00;97548.91;5072727;28;20048;-72
2023/11/02 08:11:02;;;;;;;0.70;0.70;;;;;;;10.24;100.00;97557.94;5068684;28;20045;-71
2023/11/02 08:13:32;;;;;;;2.00;0.70;;;;;;;10.26;100.00;97542.78;5060529;28;20051;-71
2023/11/02 08:16:04;;;;;;;0.70;0.50;;;;;;;10.37;100.00;97542.66;5066616;28;20137;-73
2023/11/02 08:18:33;;;;;;;1.38;0.68;;;;;;;10.44;100.00;97544.59;5057486;28;20065;-73
2023/11/02 08:21:08;;;;;;;1.13;0.60;;;;;;;10.45;100.00;97516.31;5072955;28;20036;-72
2023/11/02 08:23:39;;;;;;;1.65;0.63;;;;;;;10.44;100.00;97486.41;5086463;28;20628;-72
2023/11/02 08:26:08;;;;;;;1.20;0.60;;;;;;;10.41;100.00;97486.66;5048520;28;20516;-73
2023/11/02 08:28:37;;;;;;;1.95;0.70;;;;;;;10.48;100.00;97492.25;5054655;28;20054;-73
2023/11/02 08:31:06;;;;;;;1.83;0.80;;;;;;;10.44;100.00;97506.72;5075144;28;20040;-74
2023/11/02 08:33:36;;;;;;;3.47;0.70;;;;;;;10.43;100.00;97486.53;5070130;28;20044;-73
2023/11/02 08:36:13;;;;;;;2.05;0.70;;;;;;;10.45;100.00;97525.09;5068063;28;20078;-73
2023/11/02 08:38:41;;;;;;;1.60;0.73;;;;;;;10.39;100.00;97482.53;5071959;28;20041;-73
2023/11/02 08:41:18;;;;;;;1.52;1.00;;;;;;;10.29;100.00;97447.31;5070101;28;20094;-73
2023/11/02 08:43:47;;;;;;;1.00;0.70;;;;;;;10.37;100.00;97436.84;5068635;28;20076;-72
2023/11/02 08:46:18;;;;;;;1.00;0.80;;;;;;;10.43;100.00;97462.72;5061916;28;20048;-73
2023/11/02 08:48:47;;;;;;;;;;;;;;;10.52;100.00;97454.78;5086649;28;20044;-72
2023/11/02 08:51:19;;;;;;;1.63;0.80;;;;;;;10.59;100.00;97476.19;5068727;28;19921;-72
2023/11/02 08:53:51;;;;;;;0.90;0.60;;;;;;;10.71;100.00;97469.75;5052959;28;20044;-73
2023/11/02 08:56:19;;;;;;;2.17;0.93;;;;;;;10.69;100.00;97447.06;5064573;28;20098;-73
2023/11/02 08:58:51;;;;;;;1.95;1.50;;;;;;;10.74;100.00;97424.47;5070819;28;20452;-73
2023/11/02 09:01:22;;;;;;;5.65;1.30;;;;;;;10.78;100.00;97443.56;5074321;28;20112;-72
2023/11/02 09:03:53;;;;;;;1.52;1.23;;;;;;;10.77;100.00;97421.53;5066804;28;20044;-73
2023/11/02 09:06:27;;;;;;;2.97;0.80;;;;;;;10.97;100.00;97424.13;5068599;28;20059;-72
2023/11/02 09:08:56;;;;;;;2.03;0.90;;;;;;;11.03;100.00;97418.22;5071918;28;20060;-72
2023/11/02 09:11:27;;;;;;;;;;;;;;;11.16;100.00;97410.78;5075806;28;20041;-72
2023/11/02 09:13:58;;;;;;;1.88;0.80;;;;;;;11.15;100.00;97391.41;5068314;28;21421;-74
2023/11/02 09:16:27;;;;;;;1.38;0.73;;;;;;;11.33;100.00;97404.69;5051578;28;20036;-73
2023/11/02 09:18:58;;;;;;;2.15;0.80;;;;;;;11.25;100.00;97408.06;5072024;28;20448;-72
2023/11/02 09:21:30;;;;;;;4.20;2.45;;;;;;;11.33;100.00;97431.16;5052214;28;20071;-72
2023/11/02 09:24:05;;;;;;;0.73;0.73;;;;;;;11.38;100.00;97428.06;5065431;28;20049;-73
2023/11/02 09:26:39;;;;;;;2.40;0.90;;;;;;;11.46;100.00;97429.00;5063261;28;20047;-71
2023/11/02 09:29:10;;;;;;;0.98;0.50;;;;;;;11.48;100.00;97410.28;5068760;28;20489;-72
2023/11/02 09:31:43;;;;;;;1.75;0.70;;;;;;;11.36;100.00;97412.31;5048818;28;20051;-73
2023/11/02 09:34:29;;;;;;;4.15;0.70;;;;;;;11.47;100.00;97417.41;5063848;28;20045;-71
2023/11/02 09:37:01;;;;;;;1.63;0.90;;;;;;;11.53;100.00;97410.66;5051380;28;20052;-71
2023/11/02 09:39:30;;;;;;;;;;;;;;;11.59;100.00;97413.56;5052301;28;20579;-72
2023/11/02 09:41:58;;;;;;;2.17;0.90;;;;;;;11.63;100.00;97426.50;5068613;28;19932;-73
2023/11/02 09:44:29;;;;;;;2.20;0.80;;;;;;;11.64;100.00;97438.78;5064071;28;20059;-74
2023/11/02 09:46:57;;;;;;;1.63;0.98;;;;;;;11.65;100.00;97425.34;5070276;28;20509;-73
2023/11/02 09:49:29;;;;;;;1.10;0.60;;;;;;;11.46;100.00;97399.00;5055014;28;20049;-72
2023/11/02 09:51:58;;;;;;;0.82;0.55;;;;;;;11.56;100.00;97421.81;5078205;28;20049;-72
2023/11/02 09:54:30;;;;;;;1.85;0.50;;;;;;;11.64;100.00;97441.44;5080285;28;20041;-73
2023/11/02 09:57:13;;;;;;;0.90;0.70;;;;;;;11.58;100.00;97440.19;5074601;28;20480;-72
2023/11/02 09:59:44;;;;;;;2.90;0.90;;;;;;;11.54;100.00;97428.22;5075229;28;20135;-73
2023/11/02 10:02:14;;;;;;;1.48;0.90;;;;;;;11.54;100.00;97431.72;5068407;28;20037;-73
2023/11/02 10:04:44;;;;;;;1.05;0.60;;;;;;;11.64;100.00;97428.19;5069923;28;20041;-72
2023/11/02 10:07:12;;;;;;;3.45;0.98;;;;;;;11.60;100.00;97414.38;5060320;28;20102;-73
2023/11/02 10:09:43;;;;;;;0.85;0.50;;;;;;;11.89;100.00;97395.63;5068912;28;20458;-73
2023/11/02 10:12:13;;;;;;;1.30;0.63;;;;;;;12.01;100.00;97409.47;5069567;28;20068;-74
2023/11/02 10:14:41;;;;;;;0.70;0.50;;;;;;;12.16;100.00;97403.47;5061559;28;20056;-72
2023/11/02 10:17:11;;;;;;;1.48;0.50;;;;;;;12.27;100.00;97413.84;5063021;28;20090;-73
2023/11/02 10:19:40;;;;;;;0.70;0.60;;;;;;;12.37;100.00;97389.00;5055595;28;20553;-73
2023/11/02 10:22:08;;;;;;;1.55;0.50;;;;;;;12.46;100.00;97386.25;5067092;28;20186;-74
2023/11/02 10:24:37;;;;;;;1.75;0.88;;;;;;;12.43;100.00;97375.13;5067574;28;20104;-72
2023/11/02 10:27:10;;;;;;;1.42;0.70;;;;;;;12.55;100.00;97392.44;5041819;28;20071;-74
2023/11/02 10:29:42;;;;;;;1.55;0.80;;;;;;;12.79;100.00;97394.38;5062290;28;20064;-72
2023/11/02 10:32:11;;;;;;;1.30;0.50;;;;;;;12.69;100.00;97378.56;5066325;28;20512;-72
2023/11/02 10:34:40;;;;;;;1.63;0.70;;;;;;;12.80;100.00;97401.34;5063973;28;20049;-73
2023/11/02 10:37:08;;;;;;;3.10;0.85;;;;;;;12.91;100.00;97411.69;5067541;28;20036;-74
2023/11/02 10:39:37;;;;;;;3.97;0.60;;;;;;;12.87;100.00;97392.59;5068471;28;20064;-73
2023/11/02 10:42:08;;;;;;;3.60;0.57;;;;;;;13.09;100.00;97396.50;5071286;28;20128;-73
2023/11/02 10:44:37;;;;;;;2.20;0.50;;;;;;;13.18;100.00;97403.56;5047028;28;20112;-75
2023/11/02 10:47:07;;;;;;;2.05;0.68;;;;;;;13.12;100.00;97403.31;5067973;28;20097;-72
2023/11/02 10:49:37;;;;;;;1.65;0.43;;;;;;;13.14;100.00;97398.69;5070452;28;20059;-72
2023/11/02 10:52:08;;;;;;;2.40;1.25;;;;;;;13.06;100.00;97385.38;5067481;28;20048;-74
2023/11/02 10:54:39;;;;;;;1.90;0.80;;;;;;;13.11;100.00;97373.25;5071194;28;20054;-73
2023/11/02 10:57:15;;;;;;;2.10;0.70;;;;;;;13.10;100.00;97371.59;5068352;28;20037;-72
2023/11/02 10:59:47;;;;;;;1.55;0.75;;;;;;;13.02;100.00;97365.44;5056676;28;20139;-74
2023/11/02 11:02:23;;;;;;;2.05;0.65;;;;;;;13.00;100.00;97329.25;5079884;28;20064;-73
2023/11/02 11:04:52;;;;;;;1.25;0.50;;;;;;;12.87;100.00;97373.19;5061454;28;20139;-72
2023/11/02 11:07:25;;;;;;;1.23;0.55;;;;;;;12.61;100.00;97360.78;5053069;28;20524;-75
2023/11/02 11:09:56;;;;;;;3.33;0.60;;;;;;;12.73;100.00;97379.94;5038699;28;20504;-74
2023/11/02 11:12:26;;;;;;;0.73;0.60;;;;;;;12.80;100.00;97385.44;5071687;28;20052;-74
2023/11/02 11:14:59;;;;;;;2.35;0.60;;;;;;;12.79;100.00;97381.94;5071457;28;20489;-74
2023/11/02 11:17:27;;;;;;;2.22;0.63;;;;;;;12.71;100.00;97376.59;5072893;28;20041;-75
2023/11/02 11:19:56;;;;;;;1.50;1.00;;;;;;;12.72;100.00;97388.06;5068096;28;20084;-74
2023/11/02 11:22:27;;;;;;;4.40;0.90;;;;;;;12.69;100.00;97407.78;5073097;28;20044;-74
2023/11/02 11:24:57;;;;;;;2.38;0.63;;;;;;;12.73;100.00;97417.09;5073000;28;20048;-74
2023/11/02 11:27:34;;;;;;;2.95;0.82;;;;;;;12.86;100.00;97432.59;5069285;28;20041;-74
2023/11/02 11:30:04;;;;;;;1.75;0.85;;;;;;;12.72;100.00;97436.69;5072840;28;20060;-74
2023/11/02 11:32:34;;;;;;;2.83;0.80;;;;;;;12.79;100.00;97440.34;5075804;28;20052;-74
2023/11/02 11:35:17;;;;;;;2.22;1.05;;;;;;;12.84;100.00;97443.38;5071399;28;20052;-74
2023/11/02 11:37:49;;;;;;;2.35;1.00;;;;;;;12.78;100.00;97433.38;5086362;28;20053;-72
2023/11/02 11:40:34;;;;;;;3.03;0.60;;;;;;;12.77;100.00;97444.97;5076128;28;20049;-73
2023/11/02 11:43:12;;;;;;;4.20;0.70;;;;;;;12.86;100.00;97425.47;5073178;28;20045;-74
2023/11/02 11:45:50;;;;;;;2.08;1.08;;;;;;;12.83;100.00;97419.63;5049253;28;20040;-74
2023/11/02 11:48:38;;;;;;;1.90;0.93;;;;;;;12.70;100.00;97413.94;5086723;28;20059;-75
2023/11/02 11:51:42;;;;;;;1.65;0.70;;;;;;;12.75;100.00;97407.13;5065795;28;20102;-74
2023/11/02 11:54:16;;;;;;;1.95;0.77;;;;;;;12.76;100.00;97405.31;5072116;28;20057;-72
2023/11/02 11:56:47;;;;;;;1.25;0.70;;;;;;;12.68;100.00;97368.94;5050400;28;20129;-73